< Typhoon 197416 1974 Season Typhoon 197418 >
Typhoon 197417 (ROSE)
General InformationTrack Information on Google Maps || Disaster Info.ResourceGoogle EarthGE AnimationAtom FeedGeoJSON
Detalied Best Track (Time Zone = UTC)
Year Month Day Hour Lat. Long. Pressure (hPa) Wind (kt) Class Image Chart
1974 8 24 18 21.0 116.5 1002 0 2 -- Chart
1974 8 25 00 21.0 117.0 1002 0 2 -- Chart
1974 8 25 06 21.0 117.0 1002 0 2 -- Chart
1974 8 25 12 20.6 117.0 1002 0 2 -- Chart
1974 8 25 18 20.0 117.0 1002 0 2 -- Chart
1974 8 26 00 20.0 117.0 1002 0 2 -- Chart
1974 8 26 06 19.8 116.5 1002 0 2 -- Chart
1974 8 26 12 20.0 116.0 1002 0 2 -- Chart
1974 8 26 18 20.0 116.0 1002 0 2 -- Chart
1974 8 27 00 20.4 117.6 1000 0 2 -- Chart
1974 8 27 06 21.0 120.0 1000 0 2 -- Chart
1974 8 27 12 21.7 121.1 998 0 2 -- Chart
1974 8 27 18 22.0 122.0 996 0 9 -- Chart
1974 8 28 00 22.6 123.3 990 0 9 -- Chart
1974 8 28 06 23.0 124.7 985 0 9 -- Chart
1974 8 28 12 23.5 126.4 985 0 9 -- Chart
1974 8 28 18 24.1 127.2 985 0 9 -- Chart
1974 8 29 00 24.7 127.9 990 0 9 -- Chart
1974 8 29 06 25.3 128.6 985 0 9 -- Chart
1974 8 29 12 26.3 128.9 985 0 9 -- Chart
1974 8 29 18 26.9 128.6 985 0 9 -- Chart
1974 8 30 00 27.3 128.3 985 0 9 -- Chart
1974 8 30 06 27.1 129.2 985 0 9 -- Chart
1974 8 30 12 26.8 129.9 985 0 9 -- Chart
1974 8 30 18 26.3 130.4 990 0 9 -- Chart
1974 8 31 00 25.7 132.0 990 0 9 -- Chart
1974 8 31 06 25.0 134.3 994 0 2 -- Chart
1974 8 31 12 25.7 136.6 996 0 2 -- Chart
1974 8 31 18 26.6 138.3 996 0 2 -- Chart
1974 9 1 00 28.0 139.5 996 0 2 -- Chart
1974 9 1 06 29.5 140.0 998 0 2 -- Chart
1974 9 1 12 31.3 140.0 1000 0 2 -- Chart
1974 9 1 18 33.7 139.6 1000 0 2 -- Chart
Japan Meteorological Agency Best Track Data | Correction Date : 1989-06-01
< Typhoon 197416 1974 Season Typhoon 197418 >

Help